首页
METAR-TAF:

METAR-TAF

机场 :

德尔塔, 犹他州, 美国

纬度: 39-22-50N, 经度: 112-30-28W, 海拔: 1451米

当前天气观测

该预报发布于41分钟前的23:55 UTC
风速14节,风向南转西南,有时为22节阵风
温度 37°C
湿度 5%
气压 1015 hPa
能見度: 16.1公里
天空无云

METAR: KDTA 122355Z AUTO 20014G22KT 10SM CLR 37/M08 A2996 RMK AO1

时间: 18:36 (00:36 UTC)


TAF: 丢失

超过4000个机场的气象观测和天气预报(METAR&TAF报告)。

可查询的气象台以黄色和红色小点在地图上表示。

将鼠标移到小点上方,可查看气象台名称。

然后点击查看天气观测和预报。

如需切换地图:点击带黑十字的绿色按钮放大地图;点击带横线的绿色按钮缩小地图;或者点击绿色箭头查看邻近地区的地图。


METAR-TAF: